Time;durP1;ratioP1;P1;durP2;ratioP2;P2;SDS_P1;SDS_P2;PMS_P1;PMS_P2;Temp;Humidity;BMP_temperature;BMP_pressure;BME280_temperature;BME280_humidity;BME280_pressure;Samples;Min_cycle;Max_cycle;Signal;HPM_P1;HPM_P2
2022/05/03 00:00:03;;;;;;;14.50;10.57;;;;;;;22.70;38.64;99294.56;345671;28;1869;-70
2022/05/03 00:00:15;;;;;;;12.52;10.43;;;;;;;22.68;38.62;99296.50;345642;28;911;-70
2022/05/03 00:00:30;;;;;;;11.32;10.10;;;;;;;22.67;38.89;99299.28;345659;28;1270;-70
2022/05/03 00:00:49;;;;;;;12.20;10.00;;;;;;;22.65;39.03;99286.16;345836;28;2015;-69
2022/05/03 00:01:04;;;;;;;11.60;9.80;;;;;;;22.67;38.78;99291.34;345861;28;1902;-70
2022/05/03 00:01:34;;;;;;;11.30;9.80;;;;;;;22.63;38.70;99288.13;346518;28;1190;-70
2022/05/03 00:02:27;;;;;;;10.77;9.32;;;;;;;22.62;38.84;99281.16;345066;28;1901;-70
2022/05/03 00:02:53;;;;;;;10.10;9.00;;;;;;;22.57;38.86;99288.66;344399;28;1080;-70
2022/05/03 00:03:10;;;;;;;10.23;8.82;;;;;;;22.56;38.38;99289.66;344576;28;1021;-70
2022/05/03 00:03:26;;;;;;;10.93;9.00;;;;;;;22.56;38.49;99292.31;345245;28;1848;-70
2022/05/03 00:03:48;;;;;;;12.07;9.90;;;;;;;22.54;38.58;99294.25;345959;28;1146;-70
2022/05/03 00:04:10;;;;;;;12.73;10.38;;;;;;;22.52;38.88;99291.72;345487;28;1908;-70
2022/05/03 00:04:35;;;;;;;12.73;10.20;;;;;;;22.50;38.83;99287.56;345371;28;1908;-70
2022/05/03 00:05:01;;;;;;;12.23;10.18;;;;;;;22.54;38.86;99295.09;345411;28;1764;-70
2022/05/03 00:05:29;;;;;;;11.68;10.23;;;;;;;22.54;39.27;99288.94;344768;28;1091;-70
2022/05/03 00:05:50;;;;;;;13.23;10.15;;;;;;;22.57;39.42;99290.47;344280;28;1669;-70
2022/05/03 00:06:37;;;;;;;12.63;9.98;;;;;;;22.61;39.11;99284.78;344999;28;1939;-70
2022/05/03 00:07:54;;;;;;;11.63;10.27;;;;;;;22.62;39.51;99297.06;344847;28;1986;-70
2022/05/03 00:08:19;;;;;;;12.85;10.20;;;;;;;22.63;39.16;99293.41;344510;28;1231;-71
2022/05/03 00:08:43;;;;;;;11.95;10.45;;;;;;;22.64;39.38;99289.81;345296;28;1730;-70
2022/05/03 00:09:04;;;;;;;13.82;10.25;;;;;;;22.67;39.22;99294.00;345935;28;1445;-70
2022/05/03 00:09:37;;;;;;;14.02;10.40;;;;;;;22.66;39.59;99292.34;344563;28;1112;-70
2022/05/03 00:10:14;;;;;;;13.35;10.30;;;;;;;22.63;39.18;99298.72;344671;28;1729;-69
2022/05/03 00:10:44;;;;;;;12.50;9.98;;;;;;;22.62;39.04;99297.06;344768;28;1826;-70
2022/05/03 00:11:16;;;;;;;13.45;10.45;;;;;;;22.62;38.64;99291.75;344989;28;1884;-70
2022/05/03 00:11:32;;;;;;;12.15;9.95;;;;;;;22.60;38.89;99293.72;345146;28;1310;-71
2022/05/03 00:12:01;;;;;;;11.48;9.95;;;;;;;22.60;39.07;99293.72;345430;28;1701;-70
2022/05/03 00:12:19;;;;;;;10.75;9.63;;;;;;;22.61;38.60;99290.06;344500;28;1068;-70
2022/05/03 00:12:41;;;;;;;12.60;10.07;;;;;;;22.60;39.03;99288.41;344863;28;1623;-70
2022/05/03 00:13:00;;;;;;;12.70;10.20;;;;;;;22.59;38.99;99294.66;344904;28;1851;-70
2022/05/03 00:13:17;;;;;;;13.00;10.07;;;;;;;22.63;38.97;99293.41;346056;28;1037;-70
2022/05/03 00:13:55;;;;;;;13.98;10.38;;;;;;;22.64;39.12;99295.09;345434;28;1933;-70
2022/05/03 00:14:21;;;;;;;12.60;9.57;;;;;;;22.68;39.15;99293.88;343535;28;1200;-70
2022/05/03 00:14:37;;;;;;;12.75;10.15;;;;;;;22.72;38.76;99297.91;345912;28;1235;-70
2022/05/03 00:14:55;;;;;;;12.20;10.30;;;;;;;22.71;38.70;99290.94;345208;28;1810;-70
2022/05/03 00:15:08;;;;;;;12.95;10.15;;;;;;;22.73;39.19;99291.63;345516;28;1472;-70
2022/05/03 00:15:23;;;;;;;12.25;10.23;;;;;;;22.73;38.87;99291.63;345738;28;1900;-70
2022/05/03 00:15:39;;;;;;;12.50;10.13;;;;;;;22.72;38.76;99295.25;346134;28;1414;-70
2022/05/03 00:15:53;;;;;;;12.27;10.07;;;;;;;22.72;38.83;99292.63;345231;28;1604;-70
2022/05/03 00:16:06;;;;;;;12.50;10.45;;;;;;;22.73;39.15;99294.28;346183;28;1867;-70
2022/05/03 00:16:20;;;;;;;13.15;10.45;;;;;;;22.73;39.27;99296.09;345192;28;1239;-70
2022/05/03 00:16:37;;;;;;;14.23;10.15;;;;;;;22.72;38.84;99292.63;345848;28;1281;-70
2022/05/03 00:16:50;;;;;;;14.23;10.27;;;;;;;22.74;38.74;99295.97;345526;28;1940;-70
2022/05/03 00:17:04;;;;;;;12.55;9.88;;;;;;;22.75;38.81;99294.16;346152;28;1994;-70
2022/05/03 00:17:18;;;;;;;12.07;10.05;;;;;;;22.76;38.84;99292.31;346491;28;1090;-70
2022/05/03 00:17:32;;;;;;;12.23;10.38;;;;;;;22.74;38.77;99289.84;346152;28;1235;-70
2022/05/03 00:17:45;;;;;;;11.48;10.27;;;;;;;22.74;38.84;99289.84;345597;28;1946;-70
2022/05/03 00:17:57;;;;;;;12.35;10.38;;;;;;;22.73;38.80;99288.97;345171;28;1908;-70
2022/05/03 00:18:11;;;;;;;12.80;10.18;;;;;;;22.74;38.60;99293.31;345883;28;1197;-70
2022/05/03 00:18:23;;;;;;;11.98;9.95;;;;;;;22.72;39.19;99289.97;346456;28;1057;-70
2022/05/03 00:18:36;;;;;;;10.60;9.50;;;;;;;22.66;38.71;99292.34;345854;28;1074;-70
2022/05/03 00:18:49;;;;;;;10.45;9.35;;;;;;;22.65;39.08;99296.78;344966;28;2652;-70
2022/05/03 00:19:05;;;;;;;10.65;9.55;;;;;;;22.62;38.74;99291.75;345838;28;1961;-70
2022/05/03 00:19:17;;;;;;;11.13;9.68;;;;;;;22.58;39.14;99290.34;346406;28;1062;-70
2022/05/03 00:19:30;;;;;;;11.10;9.10;;;;;;;22.56;38.87;99289.66;346315;28;1296;-70
2022/05/03 00:19:44;;;;;;;10.73;8.77;;;;;;;22.54;39.04;99295.09;346066;28;1653;-70
2022/05/03 00:19:56;;;;;;;10.48;8.80;;;;;;;22.51;39.41;99294.50;345160;28;1655;-70
2022/05/03 00:20:09;;;;;;;10.70;8.85;;;;;;;22.49;39.11;99293.81;345232;28;1577;-70
2022/05/03 00:20:22;;;;;;;10.27;8.93;;;;;;;22.50;39.34;99293.69;346081;28;1029;-70
2022/05/03 00:20:35;;;;;;;9.85;8.70;;;;;;;22.52;39.10;99293.53;346085;28;1535;-70
2022/05/03 00:20:48;;;;;;;9.65;8.63;;;;;;;22.54;38.83;99291.59;344235;28;2292;-70
2022/05/03 00:21:01;;;;;;;10.43;9.07;;;;;;;22.50;38.89;99290.19;345510;28;1511;-70
2022/05/03 00:21:13;;;;;;;10.82;9.13;;;;;;;22.46;39.34;99291.44;346988;28;1035;-70
2022/05/03 00:21:25;;;;;;;10.82;9.07;;;;;;;22.44;39.38;99298.69;345780;28;1172;-70
2022/05/03 00:21:38;;;;;;;11.95;9.50;;;;;;;22.40;39.31;99294.63;346000;28;1059;-70
2022/05/03 00:21:50;;;;;;;10.75;9.13;;;;;;;22.40;39.03;99297.28;345232;28;2083;-70
2022/05/03 00:22:03;;;;;;;10.77;9.20;;;;;;;22.40;39.23;99291.97;345112;28;1959;-70
2022/05/03 00:22:15;;;;;;;10.73;9.40;;;;;;;22.43;39.13;99302.28;346029;28;1829;-70
2022/05/03 00:22:28;;;;;;;10.57;9.20;;;;;;;22.43;39.14;99291.69;346040;28;1214;-70
2022/05/03 00:22:41;;;;;;;11.38;9.07;;;;;;;22.44;39.18;99301.34;346198;28;1241;-70
2022/05/03 00:22:54;;;;;;;11.88;9.40;;;;;;;22.43;38.92;99302.28;345834;28;1828;-70
2022/05/03 00:23:07;;;;;;;10.85;9.35;;;;;;;22.48;39.01;99295.63;345864;28;1391;-70
2022/05/03 00:23:22;;;;;;;11.20;9.32;;;;;;;22.41;39.32;99298.94;345129;28;1656;-70
2022/05/03 00:23:34;;;;;;;11.20;9.18;;;;;;;22.42;39.13;99295.34;346192;28;1342;-70
2022/05/03 00:23:46;;;;;;;12.65;9.23;;;;;;;22.45;39.13;99295.03;345541;28;1867;-69
2022/05/03 00:23:59;;;;;;;12.38;9.48;;;;;;;22.49;39.12;99296.44;346672;28;1883;-70
2022/05/03 00:24:11;;;;;;;12.70;9.70;;;;;;;22.51;38.77;99297.16;346460;28;1022;-70
2022/05/03 00:24:23;;;;;;;12.15;9.48;;;;;;;22.53;39.18;99292.56;346167;28;1977;-70
2022/05/03 00:24:36;;;;;;;11.90;9.45;;;;;;;22.51;39.11;99290.03;344899;28;1209;-70
2022/05/03 00:24:54;;;;;;;11.48;9.70;;;;;;;22.52;39.32;99291.72;345128;28;1936;-70
2022/05/03 00:25:06;;;;;;;11.25;9.27;;;;;;;22.50;39.22;99287.56;345821;28;1233;-70
2022/05/03 00:25:18;;;;;;;11.23;9.43;;;;;;;22.48;38.83;99290.31;346411;28;1215;-70
2022/05/03 00:25:32;;;;;;;11.73;10.02;;;;;;;22.48;39.18;99294.78;346214;28;1378;-70
2022/05/03 00:25:44;;;;;;;11.98;10.27;;;;;;;22.47;39.06;99298.41;345769;28;1925;-70
2022/05/03 00:25:57;;;;;;;12.20;10.23;;;;;;;22.45;39.11;99303.00;345282;28;1758;-70
2022/05/03 00:26:09;;;;;;;11.75;10.15;;;;;;;22.46;39.16;99294.09;346447;28;1218;-70
2022/05/03 00:26:22;;;;;;;11.13;9.93;;;;;;;22.48;38.98;99294.78;346621;28;1189;-70
2022/05/03 00:26:35;;;;;;;11.48;9.90;;;;;;;22.49;38.97;99293.81;345552;28;1755;-70
2022/05/03 00:26:48;;;;;;;12.77;10.02;;;;;;;22.46;38.98;99299.38;345827;28;2138;-70
2022/05/03 00:27:00;;;;;;;12.82;9.98;;;;;;;22.46;39.11;99302.03;345447;28;1509;-70
2022/05/03 00:27:13;;;;;;;12.48;10.20;;;;;;;22.50;38.84;99308.75;346520;28;1114;-70
2022/05/03 00:27:27;;;;;;;11.10;9.82;;;;;;;22.52;38.89;99290.91;346347;28;1302;-70
2022/05/03 00:27:39;;;;;;;10.93;9.75;;;;;;;22.54;38.90;99299.53;346202;28;1509;-70
2022/05/03 00:27:51;;;;;;;10.85;9.65;;;;;;;22.54;38.79;99299.53;345022;28;1867;-70
2022/05/03 00:28:04;;;;;;;11.18;9.73;;;;;;;22.53;39.01;99295.22;346087;28;1792;-70
2022/05/03 00:28:18;;;;;;;11.18;9.82;;;;;;;22.54;39.01;99294.25;346490;28;1106;-70
2022/05/03 00:28:30;;;;;;;11.38;9.63;;;;;;;22.54;38.42;99299.53;346324;28;1319;-70
2022/05/03 00:28:43;;;;;;;12.18;10.13;;;;;;;22.57;38.60;99299.25;346248;28;1909;-70
2022/05/03 00:28:56;;;;;;;12.13;10.10;;;;;;;22.54;38.79;99295.09;345314;28;1705;-70
2022/05/03 00:29:10;;;;;;;11.40;9.93;;;;;;;22.57;38.52;99298.44;346299;28;1042;-70
2022/05/03 00:29:22;;;;;;;11.15;9.98;;;;;;;22.58;38.90;99300.09;346403;28;1180;-70
2022/05/03 00:29:34;;;;;;;11.38;10.18;;;;;;;22.59;38.32;99297.31;344969;28;1806;-70
2022/05/03 00:29:46;;;;;;;11.18;9.98;;;;;;;22.63;38.83;99304.00;345856;28;1814;-70
2022/05/03 00:29:59;;;;;;;12.35;10.02;;;;;;;22.64;38.40;99296.94;346298;28;1179;-70
2022/05/03 00:30:11;;;;;;;12.50;10.15;;;;;;;22.65;38.45;99301.25;346281;28;1949;-70
2022/05/03 00:30:23;;;;;;;11.98;9.93;;;;;;;22.62;38.47;99297.06;346414;28;1153;-71
2022/05/03 00:30:36;;;;;;;11.55;9.80;;;;;;;22.63;38.53;99298.72;345146;28;1749;-70
2022/05/03 00:30:49;;;;;;;11.80;9.90;;;;;;;22.63;38.51;99292.59;346082;28;1086;-70
2022/05/03 00:31:01;;;;;;;11.52;9.82;;;;;;;22.63;38.66;99298.72;346184;28;1027;-71
2022/05/03 00:31:14;;;;;;;11.35;9.63;;;;;;;22.64;38.82;99295.09;345830;28;1189;-70
2022/05/03 00:31:27;;;;;;;12.45;10.02;;;;;;;22.63;38.84;99293.41;345789;28;1395;-70
2022/05/03 00:31:40;;;;;;;12.07;10.00;;;;;;;22.63;38.45;99295.25;346951;28;1852;-71
2022/05/03 00:31:53;;;;;;;11.10;9.85;;;;;;;22.63;38.48;99293.41;345152;28;1800;-70
2022/05/03 00:32:06;;;;;;;12.57;9.73;;;;;;;22.64;38.48;99288.97;345704;28;1134;-70
2022/05/03 00:32:20;;;;;;;13.75;9.93;;;;;;;22.63;38.71;99293.41;346155;28;1063;-70
2022/05/03 00:32:34;;;;;;;12.43;10.00;;;;;;;22.64;38.27;99295.09;346051;28;1322;-70
2022/05/03 00:32:47;;;;;;;13.43;9.95;;;;;;;22.63;38.58;99287.28;345156;28;1661;-70
2022/05/03 00:33:02;;;;;;;13.43;9.85;;;;;;;22.65;38.47;99296.78;345260;28;1896;-70
2022/05/03 00:33:15;;;;;;;11.65;9.65;;;;;;;22.67;38.50;99289.53;346073;28;1193;-70
2022/05/03 00:33:32;;;;;;;10.45;9.23;;;;;;;22.68;38.20;99296.50;345887;28;1370;-71
2022/05/03 00:33:45;;;;;;;11.13;9.20;;;;;;;22.67;38.44;99292.16;345656;28;1918;-71
2022/05/03 00:33:58;;;;;;;12.60;9.57;;;;;;;22.66;38.64;99290.50;345639;28;1734;-70
2022/05/03 00:34:12;;;;;;;12.30;9.60;;;;;;;22.66;38.52;99290.50;344776;28;1814;-70
2022/05/03 00:34:25;;;;;;;11.82;9.57;;;;;;;22.67;38.40;99292.16;346376;28;1125;-70
2022/05/03 00:34:38;;;;;;;11.38;9.38;;;;;;;22.68;38.62;99288.56;344933;28;1787;-70
2022/05/03 00:34:50;;;;;;;11.70;9.20;;;;;;;22.73;38.33;99293.44;345528;28;1629;-70
2022/05/03 00:35:02;;;;;;;11.20;9.57;;;;;;;22.72;38.07;99289.97;345219;28;2264;-70
2022/05/03 00:35:16;;;;;;;12.45;10.05;;;;;;;22.72;38.46;99292.63;346417;28;1062;-70
2022/05/03 00:35:28;;;;;;;12.25;9.75;;;;;;;22.71;38.59;99288.28;346273;28;1282;-70
2022/05/03 00:35:41;;;;;;;12.48;9.77;;;;;;;22.68;38.68;99288.56;346532;28;1096;-70
2022/05/03 00:35:53;;;;;;;15.95;10.43;;;;;;;22.68;38.68;99291.22;345061;28;1732;-70
2022/05/03 00:36:05;;;;;;;16.60;10.45;;;;;;;22.67;38.35;99289.53;346217;28;2206;-70
2022/05/03 00:36:17;;;;;;;15.77;10.07;;;;;;;22.68;38.83;99287.72;346229;28;1034;-70
2022/05/03 00:36:31;;;;;;;11.75;9.38;;;;;;;22.68;38.64;99290.38;345544;28;1861;-70
2022/05/03 00:36:42;;;;;;;10.25;9.07;;;;;;;22.63;38.68;99288.13;345854;28;1922;-70
2022/05/03 00:36:54;;;;;;;10.50;8.90;;;;;;;22.62;38.75;99291.75;345984;28;1833;-70
2022/05/03 00:37:06;;;;;;;11.13;9.00;;;;;;;22.62;38.61;99286.47;345085;28;1063;-70
2022/05/03 00:37:19;;;;;;;11.30;9.27;;;;;;;22.63;38.53;99289.94;346365;28;1073;-70
2022/05/03 00:37:31;;;;;;;11.00;9.10;;;;;;;22.63;38.58;99287.28;346319;28;1563;-70
2022/05/03 00:37:43;;;;;;;10.75;8.95;;;;;;;22.60;38.76;99287.56;345922;28;1654;-70
2022/05/03 00:37:55;;;;;;;10.90;8.73;;;;;;;22.61;38.60;99295.38;344986;28;1828;-70
2022/05/03 00:38:07;;;;;;;10.93;8.68;;;;;;;22.60;39.00;99283.09;345887;28;1058;-71
2022/05/03 00:38:18;;;;;;;11.15;8.50;;;;;;;22.60;38.97;99293.72;346326;28;1094;-70
2022/05/03 00:38:34;;;;;;;12.23;9.02;;;;;;;22.57;38.64;99283.38;345102;28;1675;-71
2022/05/03 00:38:47;;;;;;;12.70;9.80;;;;;;;22.55;39.02;99287.97;345566;28;1985;-71
2022/05/03 00:38:59;;;;;;;13.35;10.07;;;;;;;22.55;39.04;99285.31;346458;28;1058;-71
2022/05/03 00:39:11;;;;;;;13.15;9.75;;;;;;;22.55;38.99;99290.63;346412;28;1046;-70
2022/05/03 00:39:23;;;;;;;12.93;9.32;;;;;;;22.54;38.81;99291.59;346345;28;1185;-70
2022/05/03 00:39:35;;;;;;;11.70;9.07;;;;;;;22.56;38.80;99288.78;345691;28;1146;-70
2022/05/03 00:39:47;;;;;;;12.27;9.05;;;;;;;22.57;38.64;99293.97;344764;28;1915;-70
2022/05/03 00:40:00;;;;;;;14.55;9.60;;;;;;;22.60;38.72;99293.72;345512;28;1849;-70
2022/05/03 00:40:14;;;;;;;14.20;9.88;;;;;;;22.59;38.88;99289.38;345513;28;1953;-70
2022/05/03 00:40:28;;;;;;;12.18;9.70;;;;;;;22.60;38.50;99291.06;346166;28;1345;-70
2022/05/03 00:40:48;;;;;;;11.60;9.25;;;;;;;22.61;38.90;99295.38;346324;28;1259;-70
2022/05/03 00:41:02;;;;;;;10.75;8.82;;;;;;;22.59;38.54;99292.00;345310;28;1612;-70
2022/05/03 00:41:21;;;;;;;9.90;8.70;;;;;;;22.59;38.75;99291.19;345998;28;1055;-70
2022/05/03 00:41:40;;;;;;;10.68;8.82;;;;;;;22.57;38.49;99288.66;344954;28;1577;-70
2022/05/03 00:42:10;;;;;;;11.27;9.25;;;;;;;22.56;38.87;99289.66;344365;28;2109;-70
2022/05/03 00:42:32;;;;;;;11.13;9.52;;;;;;;22.53;38.79;99293.38;344568;28;1523;-70
2022/05/03 00:43:11;;;;;;;11.15;9.48;;;;;;;22.54;38.97;99288.94;344334;28;1886;-70
2022/05/03 00:43:39;;;;;;;11.75;9.18;;;;;;;22.56;38.77;99281.72;344834;28;1964;-70
2022/05/03 00:44:55;;;;;;;10.07;8.88;;;;;;;22.56;38.91;99287.00;344763;28;1885;-70
2022/05/03 00:45:05;;;;;;;11.35;8.50;;;;;;;22.54;38.46;99286.31;345481;28;1081;-70
2022/05/03 00:45:20;;;;;;;10.10;8.77;;;;;;;22.53;38.74;99287.25;345767;28;1070;-70
2022/05/03 00:45:38;;;;;;;10.75;9.00;;;;;;;22.54;38.66;99283.66;346272;28;1361;-70
2022/05/03 00:45:56;;;;;;;11.40;9.02;;;;;;;22.53;38.65;99282.78;345310;28;1900;-70
2022/05/03 00:46:17;;;;;;;11.70;9.02;;;;;;;22.48;38.96;99278.91;344951;28;1050;-70
2022/05/03 00:46:37;;;;;;;9.90;8.88;;;;;;;22.48;38.66;99284.19;345345;28;1964;-70
2022/05/03 00:46:50;;;;;;;10.50;9.15;;;;;;;22.48;39.03;99286.84;345371;28;1930;-70
2022/05/03 00:47:14;;;;;;;10.30;9.20;;;;;;;22.47;38.57;99285.16;345637;28;1945;-70
2022/05/03 00:47:45;;;;;;;11.55;9.15;;;;;;;22.51;38.59;99286.56;345927;28;1213;-70
2022/05/03 00:48:01;;;;;;;10.18;8.95;;;;;;;22.51;38.88;99283.91;346022;28;1714;-70
2022/05/03 00:48:49;;;;;;;10.90;9.35;;;;;;;22.52;38.62;99277.66;344993;28;1065;-71
2022/05/03 00:49:30;;;;;;;11.98;9.57;;;;;;;22.53;38.88;99284.63;345463;28;1937;-70
2022/05/03 00:50:03;;;;;;;11.10;9.10;;;;;;;22.57;38.66;99283.38;344622;28;2205;-71
2022/05/03 00:50:28;;;;;;;13.93;10.10;;;;;;;22.59;38.85;99291.19;345327;28;1848;-71
2022/05/03 00:50:50;;;;;;;12.85;9.40;;;;;;;22.60;38.72;99283.09;345390;28;1222;-70
2022/05/03 00:51:28;;;;;;;12.30;10.10;;;;;;;22.65;38.61;99291.47;345612;28;1877;-70
2022/05/03 00:52:05;;;;;;;12.45;9.68;;;;;;;22.67;38.82;99288.69;345413;28;2202;-70
2022/05/03 00:52:25;;;;;;;12.32;9.60;;;;;;;22.69;38.52;99286.75;345599;28;1273;-70
2022/05/03 00:52:49;;;;;;;11.65;9.27;;;;;;;22.70;38.69;99288.44;347064;28;1604;-70
2022/05/03 00:53:09;;;;;;;11.00;9.80;;;;;;;22.69;38.82;99292.88;345240;28;1734;-70
2022/05/03 00:53:32;;;;;;;11.73;10.10;;;;;;;22.65;39.03;99286.16;345073;28;1228;-71
2022/05/03 00:53:51;;;;;;;13.20;10.30;;;;;;;22.65;38.95;99286.16;345164;28;1056;-70
2022/05/03 00:54:23;;;;;;;12.73;10.15;;;;;;;22.64;38.60;99287.16;344904;28;1484;-70
2022/05/03 00:55:02;;;;;;;13.98;10.75;;;;;;;22.66;39.16;99287.03;346034;28;1090;-70
2022/05/03 00:55:57;;;;;;;13.43;10.55;;;;;;;22.61;38.77;99284.78;346655;28;1799;-70
2022/05/03 00:56:47;;;;;;;12.13;9.77;;;;;;;22.44;39.09;99285.44;346329;28;1099;-70
2022/05/03 00:57:10;;;;;;;11.05;9.52;;;;;;;22.43;39.33;99286.41;346256;28;1723;-70
2022/05/03 00:57:51;;;;;;;9.65;8.60;;;;;;;22.38;38.98;99293.94;344968;28;1058;-70
2022/05/03 00:58:19;;;;;;;12.00;8.82;;;;;;;22.24;39.40;99287.19;344088;28;1418;-70
2022/05/03 00:58:42;;;;;;;10.52;9.20;;;;;;;22.23;39.14;99285.47;346455;28;1372;-70
2022/05/03 00:59:31;;;;;;;10.88;9.38;;;;;;;22.19;39.30;99289.34;345762;28;1591;-70
2022/05/03 01:00:05;;;;;;;11.63;9.40;;;;;;;22.18;39.39;99287.69;345806;28;1933;-70
2022/05/03 01:00:20;;;;;;;11.30;8.85;;;;;;;22.17;39.30;99286.81;345200;28;2056;-70
2022/05/03 01:00:36;;;;;;;12.02;9.13;;;;;;;22.18;39.66;99293.81;345030;28;1307;-70
2022/05/03 01:01:04;;;;;;;11.20;9.40;;;;;;;22.20;39.33;99281.28;344650;28;1935;-70
2022/05/03 01:01:19;;;;;;;11.35;9.38;;;;;;;22.22;39.39;99287.28;345146;28;852;-71
2022/05/03 01:01:32;;;;;;;11.60;9.77;;;;;;;22.24;39.10;99285.38;345848;28;1354;-71
2022/05/03 01:02:03;;;;;;;12.05;10.10;;;;;;;22.21;39.21;99288.22;346378;28;1018;-70
2022/05/03 01:02:27;;;;;;;12.55;10.13;;;;;;;22.30;39.37;99287.47;345580;28;1343;-70
2022/05/03 01:03:22;;;;;;;11.68;9.75;;;;;;;22.30;39.40;99292.78;346456;28;1307;-70
2022/05/03 01:04:08;;;;;;;13.18;10.15;;;;;;;22.34;39.17;99286.22;343332;28;1366;-70
2022/05/03 01:04:33;;;;;;;11.98;10.27;;;;;;;22.36;39.29;99286.09;343505;28;1997;-70
2022/05/03 01:05:10;;;;;;;12.50;10.52;;;;;;;22.44;39.05;99283.63;342870;28;2041;-70
2022/05/03 01:05:59;;;;;;;12.90;9.95;;;;;;;22.47;39.35;99279.84;340639;29;1252;-70
2022/05/03 01:06:23;;;;;;;12.57;10.30;;;;;;;22.51;39.14;99278.63;344708;28;1106;-70
2022/05/03 01:06:55;;;;;;;13.57;9.75;;;;;;;22.53;39.03;99281.97;344944;28;1089;-70
2022/05/03 01:07:25;;;;;;;11.88;9.80;;;;;;;22.54;39.18;99278.34;345072;28;1925;-70
2022/05/03 01:07:56;;;;;;;11.90;9.88;;;;;;;22.50;39.36;99282.25;344738;28;1109;-70
2022/05/03 01:08:14;;;;;;;12.63;10.77;;;;;;;22.49;39.14;99276.09;346256;28;1064;-71
2022/05/03 01:08:41;;;;;;;11.98;10.52;;;;;;;22.46;39.49;99280.84;345762;28;1980;-70
2022/05/03 01:09:05;;;;;;;12.45;10.20;;;;;;;22.50;39.20;99279.59;344973;28;1729;-70
2022/05/03 01:09:24;;;;;;;13.00;10.23;;;;;;;22.52;39.15;99285.59;345371;28;1200;-70
2022/05/03 01:09:41;;;;;;;11.90;9.63;;;;;;;22.54;38.98;99283.66;344627;28;1161;-70
2022/05/03 01:10:08;;;;;;;11.82;9.65;;;;;;;22.60;38.94;99283.09;344995;28;1902;-70
2022/05/03 01:10:34;;;;;;;12.63;10.07;;;;;;;22.63;38.69;99282.81;344763;28;1093;-70
2022/05/03 01:10:50;;;;;;;12.32;10.35;;;;;;;22.66;38.35;99281.72;344868;28;1784;-70
2022/05/03 01:11:34;;;;;;;12.40;9.77;;;;;;;22.67;38.53;99276.28;345737;28;1935;-70
2022/05/03 01:11:58;;;;;;;11.07;9.40;;;;;;;22.67;38.32;99281.56;345779;28;1905;-70
2022/05/03 01:12:54;;;;;;;12.88;9.95;;;;;;;22.64;38.84;99287.16;345161;28;1712;-71
2022/05/03 01:13:23;;;;;;;13.05;10.18;;;;;;;22.65;38.67;99278.22;344920;28;1818;-71
2022/05/03 01:13:45;;;;;;;12.90;10.05;;;;;;;22.65;38.74;99280.88;345389;28;1124;-70
2022/05/03 01:14:25;;;;;;;12.60;10.00;;;;;;;22.66;38.42;99284.38;345567;28;1798;-70
2022/05/03 01:15:20;;;;;;;11.70;9.75;;;;;;;22.65;38.80;99275.56;345330;28;1034;-70
2022/05/03 01:15:34;;;;;;;11.90;10.50;;;;;;;22.66;38.68;99279.09;343927;28;1341;-70
2022/05/03 01:15:52;;;;;;;12.13;10.45;;;;;;;22.62;39.00;99275.88;344244;28;1970;-70
2022/05/03 01:16:33;;;;;;;11.65;10.05;;;;;;;22.66;38.81;99271.97;345468;28;2011;-71
2022/05/03 01:16:58;;;;;;;13.20;9.90;;;;;;;22.63;39.12;99277.53;340130;28;1927;-70
2022/05/03 01:17:23;;;;;;;11.40;10.20;;;;;;;22.68;38.66;99275.31;343400;28;1005;-70
2022/05/03 01:17:42;;;;;;;11.27;9.60;;;;;;;22.69;38.74;99276.16;344322;28;1571;-71
2022/05/03 01:18:14;;;;;;;11.93;9.52;;;;;;;22.70;38.89;99277.84;344106;28;2416;-70
2022/05/03 01:18:32;;;;;;;11.75;9.90;;;;;;;22.69;38.57;99274.31;344309;28;1305;-70
2022/05/03 01:18:49;;;;;;;10.70;9.50;;;;;;;22.69;38.50;99279.63;344520;28;2223;-70
2022/05/03 01:19:27;;;;;;;12.52;9.98;;;;;;;22.67;38.83;99268.31;344662;28;1846;-70
2022/05/03 01:20:05;;;;;;;13.45;10.13;;;;;;;22.69;38.58;99276.16;344181;28;2155;-70
2022/05/03 01:20:34;;;;;;;12.40;9.75;;;;;;;22.67;38.88;99278.94;344624;28;1240;-70
2022/05/03 01:21:01;;;;;;;12.30;9.90;;;;;;;22.67;38.38;99278.94;344208;28;2043;-70
2022/05/03 01:22:06;;;;;;;14.10;9.95;;;;;;;22.64;38.56;99265.97;343675;28;1059;-70
2022/05/03 01:22:27;;;;;;;11.77;9.57;;;;;;;22.63;38.63;99266.94;345057;28;1916;-70
2022/05/03 01:22:54;;;;;;;11.68;9.40;;;;;;;22.62;39.05;99270.56;344221;28;1939;-70
2022/05/03 01:23:37;;;;;;;11.88;9.48;;;;;;;22.61;38.92;99268.88;344678;28;1058;-70
2022/05/03 01:23:57;;;;;;;12.73;9.23;;;;;;;22.61;38.64;99268.88;343070;28;1858;-70
2022/05/03 01:24:37;;;;;;;11.93;9.13;;;;;;;22.60;39.00;99267.22;344386;28;1065;-70
2022/05/03 01:25:08;;;;;;;10.75;9.23;;;;;;;22.59;38.84;99265.53;344353;28;1864;-70
2022/05/03 01:25:44;;;;;;;11.07;9.43;;;;;;;22.65;38.44;99266.81;345613;28;1166;-70
2022/05/03 01:26:04;;;;;;;10.70;9.40;;;;;;;22.64;38.84;99271.25;345237;28;1383;-70
2022/05/03 01:26:34;;;;;;;10.30;9.25;;;;;;;22.63;38.40;99266.94;346247;28;1256;-70
2022/05/03 01:26:58;;;;;;;13.52;9.60;;;;;;;22.64;38.27;99265.13;344510;28;1882;-70
2022/05/03 01:27:45;;;;;;;11.98;9.40;;;;;;;22.63;38.42;99266.94;345241;28;1940;-70
2022/05/03 01:28:15;;;;;;;11.00;9.00;;;;;;;22.59;38.64;99270.81;345943;28;1528;-70
2022/05/03 01:28:31;;;;;;;11.15;9.27;;;;;;;22.61;38.19;99268.03;345641;28;1771;-70
2022/05/03 01:29:08;;;;;;;11.40;9.02;;;;;;;22.60;38.63;99272.50;346018;28;1202;-70
2022/05/03 01:29:29;;;;;;;10.77;9.07;;;;;;;22.56;38.28;99268.47;344608;28;1082;-70
2022/05/03 01:29:48;;;;;;;11.65;9.25;;;;;;;22.52;38.66;99269.72;344744;28;1247;-70
2022/05/03 01:30:02;;;;;;;11.07;9.45;;;;;;;22.53;38.33;99263.44;345555;28;1710;-70
2022/05/03 01:30:16;;;;;;;10.90;9.43;;;;;;;22.54;38.60;99267.75;345890;28;1208;-70
2022/05/03 01:30:29;;;;;;;11.40;9.30;;;;;;;22.52;38.45;99269.72;345500;28;1674;-70
2022/05/03 01:30:47;;;;;;;12.05;9.77;;;;;;;22.49;38.79;99269.97;346422;28;1046;-70
2022/05/03 01:31:10;;;;;;;11.82;9.82;;;;;;;22.47;38.85;99266.63;345593;28;1656;-70
2022/05/03 01:31:23;;;;;;;10.80;9.02;;;;;;;22.47;38.77;99264.78;344978;28;1555;-70
2022/05/03 01:31:35;;;;;;;11.48;9.23;;;;;;;22.46;39.07;99265.78;344349;28;1698;-70
2022/05/03 01:31:53;;;;;;;12.05;9.30;;;;;;;22.47;38.99;99267.44;346634;28;1700;-70
2022/05/03 01:32:09;;;;;;;12.90;9.38;;;;;;;22.46;38.61;99270.25;345402;28;2221;-70
2022/05/03 01:32:21;;;;;;;13.13;9.73;;;;;;;22.44;38.88;99277.50;346325;28;969;-70
2022/05/03 01:32:36;;;;;;;13.40;9.77;;;;;;;22.42;38.65;99269.69;346212;28;1352;-70
2022/05/03 01:32:51;;;;;;;12.57;9.80;;;;;;;22.41;38.68;99272.47;345097;28;1671;-70
2022/05/03 01:33:08;;;;;;;10.65;9.55;;;;;;;22.41;38.67;99267.16;345465;28;1295;-70
2022/05/03 01:33:36;;;;;;;12.10;9.73;;;;;;;22.40;38.29;99270.78;346215;28;1304;-70
2022/05/03 01:33:49;;;;;;;10.80;9.57;;;;;;;22.37;39.11;99271.88;344323;28;1937;-70
2022/05/03 01:34:02;;;;;;;11.20;9.50;;;;;;;22.36;38.71;99269.38;345443;28;1764;-70
2022/05/03 01:34:19;;;;;;;10.90;9.18;;;;;;;22.32;38.61;99272.28;346257;28;1161;-71
2022/05/03 01:34:31;;;;;;;10.85;9.20;;;;;;;22.20;38.58;99275.97;345061;28;1600;-70
2022/05/03 01:34:45;;;;;;;11.18;9.45;;;;;;;22.24;38.81;99282.72;345067;28;1047;-70
2022/05/03 01:34:57;;;;;;;11.43;9.40;;;;;;;22.25;38.98;99273.78;345003;28;1654;-70
2022/05/03 01:35:13;;;;;;;14.13;9.38;;;;;;;22.27;39.01;99271.84;346262;28;1155;-70
2022/05/03 01:35:26;;;;;;;14.38;9.90;;;;;;;22.23;38.64;99275.69;346491;28;1239;-70
2022/05/03 01:35:39;;;;;;;12.90;9.95;;;;;;;22.25;38.89;99273.78;346275;28;1379;-71
2022/05/03 01:35:57;;;;;;;11.50;9.68;;;;;;;22.25;38.87;99273.78;345530;28;1899;-70
2022/05/03 01:36:10;;;;;;;11.40;9.27;;;;;;;22.22;39.19;99279.34;345832;28;1009;-70
2022/05/03 01:36:44;;;;;;;12.48;9.50;;;;;;;22.20;38.61;99281.28;345795;28;1964;-70
2022/05/03 01:36:59;;;;;;;11.57;10.00;;;;;;;22.19;39.02;99279.59;345959;28;1933;-70
2022/05/03 01:37:25;;;;;;;12.13;10.25;;;;;;;22.14;38.97;99277.34;345838;28;1796;-70
2022/05/03 01:37:55;;;;;;;12.00;10.20;;;;;;;22.16;38.57;99274.56;345517;28;1094;-70
2022/05/03 01:38:15;;;;;;;10.93;9.40;;;;;;;22.12;38.52;99273.16;345995;28;1915;-70